sensor_id;sensor_type;location;lat;lon;timestamp;P1;durP1;ratioP1;P2;durP2;ratioP2
26530;SDS011;14201;43.188;24.160;2024-01-30T00:01:25;25.58;;;16.77;;
26530;SDS011;14201;43.188;24.160;2024-01-30T00:03:51;24.70;;;15.90;;
26530;SDS011;14201;43.188;24.160;2024-01-30T00:06:19;23.30;;;15.40;;
26530;SDS011;14201;43.188;24.160;2024-01-30T00:08:49;25.02;;;16.00;;
26530;SDS011;14201;43.188;24.160;2024-01-30T00:11:15;23.02;;;16.35;;
26530;SDS011;14201;43.188;24.160;2024-01-30T00:13:41;28.48;;;15.60;;
26530;SDS011;14201;43.188;24.160;2024-01-30T00:16:07;25.40;;;15.80;;
26530;SDS011;14201;43.188;24.160;2024-01-30T00:18:34;23.75;;;15.70;;
26530;SDS011;14201;43.188;24.160;2024-01-30T00:21:00;20.60;;;13.40;;
26530;SDS011;14201;43.188;24.160;2024-01-30T00:23:25;21.73;;;13.80;;
26530;SDS011;14201;43.188;24.160;2024-01-30T00:25:51;22.73;;;14.07;;
26530;SDS011;14201;43.188;24.160;2024-01-30T00:28:16;20.10;;;14.07;;
26530;SDS011;14201;43.188;24.160;2024-01-30T00:30:42;22.15;;;14.35;;
26530;SDS011;14201;43.188;24.160;2024-01-30T00:33:08;19.88;;;13.38;;
26530;SDS011;14201;43.188;24.160;2024-01-30T00:35:34;21.80;;;14.38;;
26530;SDS011;14201;43.188;24.160;2024-01-30T00:38:00;23.42;;;14.07;;
26530;SDS011;14201;43.188;24.160;2024-01-30T00:40:26;21.15;;;14.57;;
26530;SDS011;14201;43.188;24.160;2024-01-30T00:42:52;20.13;;;13.27;;
26530;SDS011;14201;43.188;24.160;2024-01-30T00:45:17;19.73;;;14.23;;
26530;SDS011;14201;43.188;24.160;2024-01-30T00:47:43;20.80;;;13.88;;
26530;SDS011;14201;43.188;24.160;2024-01-30T00:50:09;21.95;;;13.95;;
26530;SDS011;14201;43.188;24.160;2024-01-30T00:52:36;20.70;;;13.20;;
26530;SDS011;14201;43.188;24.160;2024-01-30T00:55:02;18.38;;;12.50;;
26530;SDS011;14201;43.188;24.160;2024-01-30T00:57:28;18.13;;;11.98;;
26530;SDS011;14201;43.188;24.160;2024-01-30T00:59:54;19.48;;;12.25;;
26530;SDS011;14201;43.188;24.160;2024-01-30T01:02:20;20.25;;;11.48;;
26530;SDS011;14201;43.188;24.160;2024-01-30T01:04:45;15.73;;;10.38;;
26530;SDS011;14201;43.188;24.160;2024-01-30T01:07:11;16.10;;;10.00;;
26530;SDS011;14201;43.188;24.160;2024-01-30T01:09:37;14.85;;;10.32;;
26530;SDS011;14201;43.188;24.160;2024-01-30T01:12:03;15.95;;;10.48;;
26530;SDS011;14201;43.188;24.160;2024-01-30T01:14:29;14.85;;;10.70;;
26530;SDS011;14201;43.188;24.160;2024-01-30T01:16:55;17.08;;;11.32;;
26530;SDS011;14201;43.188;24.160;2024-01-30T01:19:21;19.00;;;11.57;;
26530;SDS011;14201;43.188;24.160;2024-01-30T01:21:47;16.85;;;12.00;;
26530;SDS011;14201;43.188;24.160;2024-01-30T01:24:12;18.92;;;12.68;;
26530;SDS011;14201;43.188;24.160;2024-01-30T01:26:38;17.40;;;12.43;;
26530;SDS011;14201;43.188;24.160;2024-01-30T01:29:04;18.73;;;12.73;;
26530;SDS011;14201;43.188;24.160;2024-01-30T01:31:37;21.08;;;13.35;;
26530;SDS011;14201;43.188;24.160;2024-01-30T01:34:13;18.35;;;12.02;;
26530;SDS011;14201;43.188;24.160;2024-01-30T01:36:39;19.23;;;12.60;;
26530;SDS011;14201;43.188;24.160;2024-01-30T01:39:05;17.63;;;12.23;;
26530;SDS011;14201;43.188;24.160;2024-01-30T01:41:31;16.35;;;11.23;;
26530;SDS011;14201;43.188;24.160;2024-01-30T01:43:57;18.30;;;11.27;;
26530;SDS011;14201;43.188;24.160;2024-01-30T01:46:26;17.25;;;11.90;;
26530;SDS011;14201;43.188;24.160;2024-01-30T01:48:53;20.48;;;12.55;;
26530;SDS011;14201;43.188;24.160;2024-01-30T01:51:20;17.23;;;11.43;;
26530;SDS011;14201;43.188;24.160;2024-01-30T01:53:47;18.35;;;12.02;;
26530;SDS011;14201;43.188;24.160;2024-01-30T01:56:13;15.93;;;10.63;;
26530;SDS011;14201;43.188;24.160;2024-01-30T01:58:39;15.90;;;11.00;;
26530;SDS011;14201;43.188;24.160;2024-01-30T02:01:05;16.60;;;11.35;;
26530;SDS011;14201;43.188;24.160;2024-01-30T02:03:33;17.80;;;11.85;;
26530;SDS011;14201;43.188;24.160;2024-01-30T02:05:59;18.42;;;11.00;;
26530;SDS011;14201;43.188;24.160;2024-01-30T02:08:30;18.48;;;11.82;;
26530;SDS011;14201;43.188;24.160;2024-01-30T02:10:56;16.98;;;12.02;;
26530;SDS011;14201;43.188;24.160;2024-01-30T02:13:21;17.65;;;12.25;;
26530;SDS011;14201;43.188;24.160;2024-01-30T02:15:51;18.48;;;12.88;;
26530;SDS011;14201;43.188;24.160;2024-01-30T02:18:16;19.30;;;13.63;;
26530;SDS011;14201;43.188;24.160;2024-01-30T02:20:44;22.05;;;14.07;;
26530;SDS011;14201;43.188;24.160;2024-01-30T02:23:10;22.08;;;13.75;;
26530;SDS011;14201;43.188;24.160;2024-01-30T02:25:40;24.42;;;15.52;;
26530;SDS011;14201;43.188;24.160;2024-01-30T02:28:10;23.50;;;14.80;;
26530;SDS011;14201;43.188;24.160;2024-01-30T02:30:37;24.52;;;15.65;;
26530;SDS011;14201;43.188;24.160;2024-01-30T02:33:03;24.15;;;15.65;;
26530;SDS011;14201;43.188;24.160;2024-01-30T02:35:29;23.52;;;15.82;;
26530;SDS011;14201;43.188;24.160;2024-01-30T02:37:55;25.42;;;16.20;;
26530;SDS011;14201;43.188;24.160;2024-01-30T02:40:20;23.42;;;15.23;;
26530;SDS011;14201;43.188;24.160;2024-01-30T02:42:46;22.50;;;14.77;;
26530;SDS011;14201;43.188;24.160;2024-01-30T02:45:12;20.55;;;14.45;;
26530;SDS011;14201;43.188;24.160;2024-01-30T02:47:38;21.80;;;13.65;;
26530;SDS011;14201;43.188;24.160;2024-01-30T02:50:04;20.63;;;13.48;;
26530;SDS011;14201;43.188;24.160;2024-01-30T02:52:30;20.30;;;13.07;;
26530;SDS011;14201;43.188;24.160;2024-01-30T02:54:56;18.48;;;12.68;;
26530;SDS011;14201;43.188;24.160;2024-01-30T02:57:22;18.83;;;13.35;;
26530;SDS011;14201;43.188;24.160;2024-01-30T02:59:47;23.30;;;13.52;;
26530;SDS011;14201;43.188;24.160;2024-01-30T03:02:13;24.13;;;12.48;;
26530;SDS011;14201;43.188;24.160;2024-01-30T03:04:40;17.55;;;12.30;;
26530;SDS011;14201;43.188;24.160;2024-01-30T03:07:07;22.38;;;12.95;;
26530;SDS011;14201;43.188;24.160;2024-01-30T03:09:32;20.10;;;13.32;;
26530;SDS011;14201;43.188;24.160;2024-01-30T03:11:58;19.13;;;12.50;;
26530;SDS011;14201;43.188;24.160;2024-01-30T03:14:24;18.42;;;13.00;;
26530;SDS011;14201;43.188;24.160;2024-01-30T03:16:49;24.75;;;15.02;;
26530;SDS011;14201;43.188;24.160;2024-01-30T03:19:15;21.02;;;12.82;;
26530;SDS011;14201;43.188;24.160;2024-01-30T03:21:41;18.83;;;12.07;;
26530;SDS011;14201;43.188;24.160;2024-01-30T03:24:06;22.77;;;13.50;;
26530;SDS011;14201;43.188;24.160;2024-01-30T03:26:32;21.08;;;13.88;;
26530;SDS011;14201;43.188;24.160;2024-01-30T03:28:57;20.65;;;13.40;;
26530;SDS011;14201;43.188;24.160;2024-01-30T03:31:23;22.38;;;13.68;;
26530;SDS011;14201;43.188;24.160;2024-01-30T03:33:49;21.88;;;13.63;;
26530;SDS011;14201;43.188;24.160;2024-01-30T03:36:15;20.33;;;13.90;;
26530;SDS011;14201;43.188;24.160;2024-01-30T03:38:41;14.82;;;11.02;;
26530;SDS011;14201;43.188;24.160;2024-01-30T03:41:09;18.67;;;12.18;;
26530;SDS011;14201;43.188;24.160;2024-01-30T03:43:35;17.10;;;11.82;;
26530;SDS011;14201;43.188;24.160;2024-01-30T03:46:01;20.48;;;12.38;;
26530;SDS011;14201;43.188;24.160;2024-01-30T03:48:28;19.42;;;12.55;;
26530;SDS011;14201;43.188;24.160;2024-01-30T03:50:54;19.67;;;12.70;;
26530;SDS011;14201;43.188;24.160;2024-01-30T03:53:20;18.90;;;12.52;;
26530;SDS011;14201;43.188;24.160;2024-01-30T03:55:47;20.75;;;13.02;;
26530;SDS011;14201;43.188;24.160;2024-01-30T03:58:13;19.70;;;12.95;;
26530;SDS011;14201;43.188;24.160;2024-01-30T04:00:38;20.00;;;13.43;;
26530;SDS011;14201;43.188;24.160;2024-01-30T04:03:06;20.90;;;13.02;;
26530;SDS011;14201;43.188;24.160;2024-01-30T04:05:31;19.20;;;12.82;;
26530;SDS011;14201;43.188;24.160;2024-01-30T04:07:57;19.73;;;12.50;;
26530;SDS011;14201;43.188;24.160;2024-01-30T04:10:23;22.05;;;13.02;;
26530;SDS011;14201;43.188;24.160;2024-01-30T04:12:50;19.67;;;13.13;;
26530;SDS011;14201;43.188;24.160;2024-01-30T04:15:17;20.10;;;13.55;;
26530;SDS011;14201;43.188;24.160;2024-01-30T04:17:43;21.73;;;13.73;;
26530;SDS011;14201;43.188;24.160;2024-01-30T04:20:15;24.70;;;14.52;;
26530;SDS011;14201;43.188;24.160;2024-01-30T04:22:44;25.98;;;14.35;;
26530;SDS011;14201;43.188;24.160;2024-01-30T04:25:10;22.73;;;14.65;;
26530;SDS011;14201;43.188;24.160;2024-01-30T04:27:39;23.05;;;14.95;;
26530;SDS011;14201;43.188;24.160;2024-01-30T04:30:05;22.45;;;14.73;;
26530;SDS011;14201;43.188;24.160;2024-01-30T04:32:31;23.42;;;14.93;;
26530;SDS011;14201;43.188;24.160;2024-01-30T04:34:57;22.08;;;14.60;;
26530;SDS011;14201;43.188;24.160;2024-01-30T04:37:23;23.45;;;13.93;;
26530;SDS011;14201;43.188;24.160;2024-01-30T04:39:50;22.17;;;14.18;;
26530;SDS011;14201;43.188;24.160;2024-01-30T04:42:16;22.05;;;15.00;;
26530;SDS011;14201;43.188;24.160;2024-01-30T04:44:42;21.65;;;14.00;;
26530;SDS011;14201;43.188;24.160;2024-01-30T04:47:07;23.85;;;16.02;;
26530;SDS011;14201;43.188;24.160;2024-01-30T04:49:35;26.23;;;16.95;;
26530;SDS011;14201;43.188;24.160;2024-01-30T04:52:01;29.38;;;16.83;;
26530;SDS011;14201;43.188;24.160;2024-01-30T04:54:26;26.10;;;16.05;;
26530;SDS011;14201;43.188;24.160;2024-01-30T04:56:52;25.33;;;15.38;;
26530;SDS011;14201;43.188;24.160;2024-01-30T04:59:18;21.40;;;14.82;;
26530;SDS011;14201;43.188;24.160;2024-01-30T05:01:43;23.00;;;14.70;;
26530;SDS011;14201;43.188;24.160;2024-01-30T05:04:09;25.05;;;15.65;;
26530;SDS011;14201;43.188;24.160;2024-01-30T05:06:36;23.50;;;15.40;;
26530;SDS011;14201;43.188;24.160;2024-01-30T05:09:02;24.73;;;15.52;;
26530;SDS011;14201;43.188;24.160;2024-01-30T05:11:29;24.13;;;15.85;;
26530;SDS011;14201;43.188;24.160;2024-01-30T05:13:55;25.05;;;15.82;;
26530;SDS011;14201;43.188;24.160;2024-01-30T05:16:21;24.52;;;15.93;;
26530;SDS011;14201;43.188;24.160;2024-01-30T05:18:47;28.10;;;15.38;;
26530;SDS011;14201;43.188;24.160;2024-01-30T05:21:13;26.77;;;15.27;;
26530;SDS011;14201;43.188;24.160;2024-01-30T05:23:39;28.58;;;16.70;;
26530;SDS011;14201;43.188;24.160;2024-01-30T05:26:07;27.05;;;17.67;;
26530;SDS011;14201;43.188;24.160;2024-01-30T05:28:33;27.75;;;19.27;;
26530;SDS011;14201;43.188;24.160;2024-01-30T05:30:59;30.77;;;20.38;;
26530;SDS011;14201;43.188;24.160;2024-01-30T05:33:24;29.02;;;19.10;;
26530;SDS011;14201;43.188;24.160;2024-01-30T05:35:50;30.13;;;19.90;;
26530;SDS011;14201;43.188;24.160;2024-01-30T05:38:19;30.25;;;20.00;;
26530;SDS011;14201;43.188;24.160;2024-01-30T05:40:45;30.90;;;20.50;;
26530;SDS011;14201;43.188;24.160;2024-01-30T05:43:11;32.50;;;18.88;;
26530;SDS011;14201;43.188;24.160;2024-01-30T05:45:37;26.80;;;18.67;;
26530;SDS011;14201;43.188;24.160;2024-01-30T05:48:03;31.92;;;18.48;;
26530;SDS011;14201;43.188;24.160;2024-01-30T05:50:29;26.70;;;18.27;;
26530;SDS011;14201;43.188;24.160;2024-01-30T05:52:55;29.77;;;18.45;;
26530;SDS011;14201;43.188;24.160;2024-01-30T05:55:21;29.60;;;18.92;;
26530;SDS011;14201;43.188;24.160;2024-01-30T05:57:47;26.25;;;17.75;;
26530;SDS011;14201;43.188;24.160;2024-01-30T06:00:13;25.10;;;16.98;;
26530;SDS011;14201;43.188;24.160;2024-01-30T06:02:39;26.40;;;17.77;;
26530;SDS011;14201;43.188;24.160;2024-01-30T06:05:04;26.70;;;17.77;;
26530;SDS011;14201;43.188;24.160;2024-01-30T06:07:31;26.80;;;18.35;;
26530;SDS011;14201;43.188;24.160;2024-01-30T06:09:56;27.83;;;18.33;;
26530;SDS011;14201;43.188;24.160;2024-01-30T06:12:25;25.92;;;17.50;;
26530;SDS011;14201;43.188;24.160;2024-01-30T06:14:51;31.63;;;17.30;;
26530;SDS011;14201;43.188;24.160;2024-01-30T06:17:19;30.65;;;18.48;;
26530;SDS011;14201;43.188;24.160;2024-01-30T06:19:45;31.25;;;17.00;;
26530;SDS011;14201;43.188;24.160;2024-01-30T06:22:10;25.92;;;17.45;;
26530;SDS011;14201;43.188;24.160;2024-01-30T06:24:36;29.00;;;18.50;;
26530;SDS011;14201;43.188;24.160;2024-01-30T06:27:02;30.13;;;18.45;;
26530;SDS011;14201;43.188;24.160;2024-01-30T06:29:31;32.97;;;20.30;;
26530;SDS011;14201;43.188;24.160;2024-01-30T06:31:56;32.80;;;18.60;;
26530;SDS011;14201;43.188;24.160;2024-01-30T06:34:22;29.13;;;18.90;;
26530;SDS011;14201;43.188;24.160;2024-01-30T06:36:48;34.28;;;20.80;;
26530;SDS011;14201;43.188;24.160;2024-01-30T06:39:13;34.17;;;20.75;;
26530;SDS011;14201;43.188;24.160;2024-01-30T06:41:39;32.22;;;19.98;;
26530;SDS011;14201;43.188;24.160;2024-01-30T06:44:05;32.22;;;21.38;;
26530;SDS011;14201;43.188;24.160;2024-01-30T06:46:32;34.97;;;21.73;;
26530;SDS011;14201;43.188;24.160;2024-01-30T06:48:57;33.00;;;20.63;;
26530;SDS011;14201;43.188;24.160;2024-01-30T06:51:23;34.22;;;21.20;;
26530;SDS011;14201;43.188;24.160;2024-01-30T06:53:49;36.30;;;21.35;;
26530;SDS011;14201;43.188;24.160;2024-01-30T06:56:15;31.77;;;20.70;;
26530;SDS011;14201;43.188;24.160;2024-01-30T06:58:46;37.35;;;19.63;;
26530;SDS011;14201;43.188;24.160;2024-01-30T07:01:12;34.47;;;18.50;;
26530;SDS011;14201;43.188;24.160;2024-01-30T07:03:38;34.60;;;20.85;;
26530;SDS011;14201;43.188;24.160;2024-01-30T07:06:04;30.52;;;19.42;;
26530;SDS011;14201;43.188;24.160;2024-01-30T07:08:29;29.05;;;18.20;;
26530;SDS011;14201;43.188;24.160;2024-01-30T07:10:55;28.27;;;17.52;;
26530;SDS011;14201;43.188;24.160;2024-01-30T07:13:21;30.13;;;17.42;;
26530;SDS011;14201;43.188;24.160;2024-01-30T07:15:47;26.90;;;17.63;;
26530;SDS011;14201;43.188;24.160;2024-01-30T07:18:13;31.25;;;19.48;;
26530;SDS011;14201;43.188;24.160;2024-01-30T07:20:39;32.70;;;20.17;;
26530;SDS011;14201;43.188;24.160;2024-01-30T07:23:14;33.90;;;19.88;;
26530;SDS011;14201;43.188;24.160;2024-01-30T07:25:43;34.80;;;21.48;;
26530;SDS011;14201;43.188;24.160;2024-01-30T07:28:10;35.10;;;21.55;;
26530;SDS011;14201;43.188;24.160;2024-01-30T07:30:37;35.00;;;21.40;;
26530;SDS011;14201;43.188;24.160;2024-01-30T07:33:03;34.47;;;20.13;;
26530;SDS011;14201;43.188;24.160;2024-01-30T07:35:29;29.58;;;19.50;;
26530;SDS011;14201;43.188;24.160;2024-01-30T07:37:54;29.77;;;19.30;;
26530;SDS011;14201;43.188;24.160;2024-01-30T07:40:20;31.00;;;18.58;;
26530;SDS011;14201;43.188;24.160;2024-01-30T07:42:46;26.33;;;16.38;;
26530;SDS011;14201;43.188;24.160;2024-01-30T07:45:13;27.60;;;17.05;;
26530;SDS011;14201;43.188;24.160;2024-01-30T07:47:39;26.67;;;17.70;;
26530;SDS011;14201;43.188;24.160;2024-01-30T07:50:04;28.63;;;18.27;;
26530;SDS011;14201;43.188;24.160;2024-01-30T07:52:31;27.98;;;17.85;;
26530;SDS011;14201;43.188;24.160;2024-01-30T07:54:57;32.63;;;20.75;;
26530;SDS011;14201;43.188;24.160;2024-01-30T07:57:22;32.55;;;18.85;;
26530;SDS011;14201;43.188;24.160;2024-01-30T07:59:48;28.45;;;18.27;;
26530;SDS011;14201;43.188;24.160;2024-01-30T08:02:14;25.70;;;17.73;;
26530;SDS011;14201;43.188;24.160;2024-01-30T08:04:40;29.23;;;17.05;;
26530;SDS011;14201;43.188;24.160;2024-01-30T08:07:06;24.10;;;16.52;;
26530;SDS011;14201;43.188;24.160;2024-01-30T08:09:32;25.80;;;16.75;;
26530;SDS011;14201;43.188;24.160;2024-01-30T08:11:58;24.27;;;15.80;;
26530;SDS011;14201;43.188;24.160;2024-01-30T08:14:24;21.70;;;13.85;;
26530;SDS011;14201;43.188;24.160;2024-01-30T08:16:51;19.95;;;13.27;;
26530;SDS011;14201;43.188;24.160;2024-01-30T08:19:17;21.52;;;13.32;;
26530;SDS011;14201;43.188;24.160;2024-01-30T08:21:42;24.52;;;15.25;;
26530;SDS011;14201;43.188;24.160;2024-01-30T08:24:08;27.63;;;17.55;;
26530;SDS011;14201;43.188;24.160;2024-01-30T08:26:34;28.45;;;16.58;;
26530;SDS011;14201;43.188;24.160;2024-01-30T08:29:01;27.75;;;17.15;;
26530;SDS011;14201;43.188;24.160;2024-01-30T08:31:27;23.70;;;15.77;;
26530;SDS011;14201;43.188;24.160;2024-01-30T08:33:52;25.88;;;14.50;;
26530;SDS011;14201;43.188;24.160;2024-01-30T08:36:19;21.60;;;13.63;;
26530;SDS011;14201;43.188;24.160;2024-01-30T08:38:45;22.00;;;13.93;;
26530;SDS011;14201;43.188;24.160;2024-01-30T08:41:10;20.75;;;13.43;;
26530;SDS011;14201;43.188;24.160;2024-01-30T08:43:36;20.80;;;12.05;;
26530;SDS011;14201;43.188;24.160;2024-01-30T08:46:02;22.17;;;12.80;;
26530;SDS011;14201;43.188;24.160;2024-01-30T08:48:28;18.52;;;12.65;;
26530;SDS011;14201;43.188;24.160;2024-01-30T08:50:54;20.52;;;13.25;;
26530;SDS011;14201;43.188;24.160;2024-01-30T08:53:20;21.90;;;13.55;;
26530;SDS011;14201;43.188;24.160;2024-01-30T08:55:46;17.70;;;12.23;;
26530;SDS011;14201;43.188;24.160;2024-01-30T08:58:12;18.80;;;13.40;;
26530;SDS011;14201;43.188;24.160;2024-01-30T09:00:37;24.90;;;13.32;;
26530;SDS011;14201;43.188;24.160;2024-01-30T09:03:03;19.17;;;12.48;;
26530;SDS011;14201;43.188;24.160;2024-01-30T09:05:29;21.75;;;13.70;;
26530;SDS011;14201;43.188;24.160;2024-01-30T09:07:55;21.92;;;13.07;;
26530;SDS011;14201;43.188;24.160;2024-01-30T09:10:21;22.40;;;14.60;;
26530;SDS011;14201;43.188;24.160;2024-01-30T09:12:47;23.92;;;15.52;;
26530;SDS011;14201;43.188;24.160;2024-01-30T09:15:14;22.00;;;14.10;;
26530;SDS011;14201;43.188;24.160;2024-01-30T09:17:40;22.73;;;14.48;;
26530;SDS011;14201;43.188;24.160;2024-01-30T09:20:06;23.33;;;14.82;;
26530;SDS011;14201;43.188;24.160;2024-01-30T09:22:32;21.63;;;14.25;;
26530;SDS011;14201;43.188;24.160;2024-01-30T09:24:58;21.95;;;14.45;;
26530;SDS011;14201;43.188;24.160;2024-01-30T09:27:23;21.15;;;14.35;;
26530;SDS011;14201;43.188;24.160;2024-01-30T09:29:49;22.13;;;13.65;;
26530;SDS011;14201;43.188;24.160;2024-01-30T09:32:16;18.60;;;12.80;;
26530;SDS011;14201;43.188;24.160;2024-01-30T09:34:43;19.15;;;13.05;;
26530;SDS011;14201;43.188;24.160;2024-01-30T09:37:08;19.77;;;13.73;;
26530;SDS011;14201;43.188;24.160;2024-01-30T09:39:34;18.83;;;13.15;;
26530;SDS011;14201;43.188;24.160;2024-01-30T09:45:00;17.13;;;10.20;;
26530;SDS011;14201;43.188;24.160;2024-01-30T09:47:30;24.27;;;14.07;;
26530;SDS011;14201;43.188;24.160;2024-01-30T09:49:57;18.70;;;12.70;;
26530;SDS011;14201;43.188;24.160;2024-01-30T09:52:23;20.73;;;14.07;;
26530;SDS011;14201;43.188;24.160;2024-01-30T09:54:49;19.25;;;13.98;;
26530;SDS011;14201;43.188;24.160;2024-01-30T09:57:17;22.52;;;13.57;;
26530;SDS011;14201;43.188;24.160;2024-01-30T09:59:43;22.75;;;14.35;;
26530;SDS011;14201;43.188;24.160;2024-01-30T10:02:09;24.23;;;14.27;;
26530;SDS011;14201;43.188;24.160;2024-01-30T10:04:35;19.90;;;13.55;;
26530;SDS011;14201;43.188;24.160;2024-01-30T10:07:04;20.30;;;13.88;;
26530;SDS011;14201;43.188;24.160;2024-01-30T10:09:33;21.73;;;13.23;;
26530;SDS011;14201;43.188;24.160;2024-01-30T10:11:59;20.77;;;13.10;;
26530;SDS011;14201;43.188;24.160;2024-01-30T10:14:26;19.05;;;13.18;;
26530;SDS011;14201;43.188;24.160;2024-01-30T10:16:52;22.08;;;14.00;;
26530;SDS011;14201;43.188;24.160;2024-01-30T10:19:18;20.17;;;13.48;;
26530;SDS011;14201;43.188;24.160;2024-01-30T10:21:43;20.02;;;13.27;;
26530;SDS011;14201;43.188;24.160;2024-01-30T10:24:11;20.63;;;13.60;;
26530;SDS011;14201;43.188;24.160;2024-01-30T10:26:39;20.75;;;13.75;;
26530;SDS011;14201;43.188;24.160;2024-01-30T10:29:05;17.05;;;11.77;;
26530;SDS011;14201;43.188;24.160;2024-01-30T10:31:31;17.38;;;10.77;;
26530;SDS011;14201;43.188;24.160;2024-01-30T10:33:56;15.63;;;10.73;;
26530;SDS011;14201;43.188;24.160;2024-01-30T10:36:24;14.05;;;9.98;;
26530;SDS011;14201;43.188;24.160;2024-01-30T10:38:55;17.48;;;10.18;;
26530;SDS011;14201;43.188;24.160;2024-01-30T10:41:27;17.35;;;10.73;;
26530;SDS011;14201;43.188;24.160;2024-01-30T10:44:07;15.05;;;10.20;;
26530;SDS011;14201;43.188;24.160;2024-01-30T10:46:34;15.07;;;10.85;;
26530;SDS011;14201;43.188;24.160;2024-01-30T10:49:02;12.10;;;9.00;;
26530;SDS011;14201;43.188;24.160;2024-01-30T10:51:30;15.98;;;9.15;;
26530;SDS011;14201;43.188;24.160;2024-01-30T10:53:56;14.07;;;9.98;;
26530;SDS011;14201;43.188;24.160;2024-01-30T10:56:23;15.25;;;10.02;;
26530;SDS011;14201;43.188;24.160;2024-01-30T10:58:50;13.93;;;10.38;;
26530;SDS011;14201;43.188;24.160;2024-01-30T11:01:23;13.75;;;9.25;;
26530;SDS011;14201;43.188;24.160;2024-01-30T11:03:50;12.32;;;7.32;;
26530;SDS011;14201;43.188;24.160;2024-01-30T11:06:17;13.38;;;9.55;;
26530;SDS011;14201;43.188;24.160;2024-01-30T11:08:45;13.07;;;9.48;;
26530;SDS011;14201;43.188;24.160;2024-01-30T11:11:11;14.88;;;9.45;;
26530;SDS011;14201;43.188;24.160;2024-01-30T11:13:38;15.63;;;9.77;;
26530;SDS011;14201;43.188;24.160;2024-01-30T11:16:04;16.75;;;8.70;;
26530;SDS011;14201;43.188;24.160;2024-01-30T11:18:31;13.80;;;9.52;;
26530;SDS011;14201;43.188;24.160;2024-01-30T11:20:58;14.35;;;9.02;;
26530;SDS011;14201;43.188;24.160;2024-01-30T11:23:30;14.27;;;8.90;;
26530;SDS011;14201;43.188;24.160;2024-01-30T11:25:56;10.60;;;7.43;;
26530;SDS011;14201;43.188;24.160;2024-01-30T11:28:22;15.35;;;9.43;;
26530;SDS011;14201;43.188;24.160;2024-01-30T11:30:48;13.02;;;8.60;;
26530;SDS011;14201;43.188;24.160;2024-01-30T11:33:27;11.82;;;8.23;;
26530;SDS011;14201;43.188;24.160;2024-01-30T11:35:58;14.07;;;9.30;;
26530;SDS011;14201;43.188;24.160;2024-01-30T11:38:27;7.77;;;5.87;;
26530;SDS011;14201;43.188;24.160;2024-01-30T11:40:54;10.57;;;7.30;;
26530;SDS011;14201;43.188;24.160;2024-01-30T11:43:23;10.75;;;7.28;;
26530;SDS011;14201;43.188;24.160;2024-01-30T11:45:49;14.05;;;7.78;;
26530;SDS011;14201;43.188;24.160;2024-01-30T11:48:15;10.93;;;7.40;;
26530;SDS011;14201;43.188;24.160;2024-01-30T11:50:41;10.60;;;7.22;;
26530;SDS011;14201;43.188;24.160;2024-01-30T11:53:07;13.57;;;7.88;;
26530;SDS011;14201;43.188;24.160;2024-01-30T11:55:33;7.35;;;5.43;;
26530;SDS011;14201;43.188;24.160;2024-01-30T11:58:01;8.95;;;5.57;;
26530;SDS011;14201;43.188;24.160;2024-01-30T12:00:27;7.10;;;4.80;;
26530;SDS011;14201;43.188;24.160;2024-01-30T12:02:55;6.93;;;4.75;;
26530;SDS011;14201;43.188;24.160;2024-01-30T12:05:24;7.10;;;4.90;;
26530;SDS011;14201;43.188;24.160;2024-01-30T12:07:50;8.07;;;4.88;;
26530;SDS011;14201;43.188;24.160;2024-01-30T12:10:16;8.27;;;5.22;;
26530;SDS011;14201;43.188;24.160;2024-01-30T12:12:51;7.32;;;4.93;;
26530;SDS011;14201;43.188;24.160;2024-01-30T12:15:17;7.13;;;4.85;;
26530;SDS011;14201;43.188;24.160;2024-01-30T12:17:46;5.30;;;3.63;;
26530;SDS011;14201;43.188;24.160;2024-01-30T12:20:13;7.20;;;4.82;;
26530;SDS011;14201;43.188;24.160;2024-01-30T12:22:42;5.55;;;4.05;;
26530;SDS011;14201;43.188;24.160;2024-01-30T12:25:09;10.02;;;4.75;;
26530;SDS011;14201;43.188;24.160;2024-01-30T12:27:36;9.07;;;4.65;;
26530;SDS011;14201;43.188;24.160;2024-01-30T12:30:09;6.85;;;4.68;;
26530;SDS011;14201;43.188;24.160;2024-01-30T12:32:36;6.97;;;4.82;;
26530;SDS011;14201;43.188;24.160;2024-01-30T12:35:02;7.10;;;4.18;;
26530;SDS011;14201;43.188;24.160;2024-01-30T12:37:29;6.10;;;4.30;;
26530;SDS011;14201;43.188;24.160;2024-01-30T12:39:55;6.93;;;4.70;;
26530;SDS011;14201;43.188;24.160;2024-01-30T12:42:22;8.35;;;4.95;;
26530;SDS011;14201;43.188;24.160;2024-01-30T12:44:48;7.97;;;5.30;;
26530;SDS011;14201;43.188;24.160;2024-01-30T12:47:14;18.30;;;10.80;;
26530;SDS011;14201;43.188;24.160;2024-01-30T12:49:44;6.88;;;5.07;;
26530;SDS011;14201;43.188;24.160;2024-01-30T12:52:10;10.75;;;5.88;;
26530;SDS011;14201;43.188;24.160;2024-01-30T12:54:37;8.38;;;5.80;;
26530;SDS011;14201;43.188;24.160;2024-01-30T12:57:03;10.50;;;6.72;;
26530;SDS011;14201;43.188;24.160;2024-01-30T12:59:29;10.88;;;6.20;;
26530;SDS011;14201;43.188;24.160;2024-01-30T13:01:55;8.77;;;5.90;;
26530;SDS011;14201;43.188;24.160;2024-01-30T13:04:21;8.27;;;5.55;;
26530;SDS011;14201;43.188;24.160;2024-01-30T13:06:48;10.63;;;6.25;;
26530;SDS011;14201;43.188;24.160;2024-01-30T13:09:13;9.95;;;6.22;;
26530;SDS011;14201;43.188;24.160;2024-01-30T13:11:39;9.52;;;5.53;;
26530;SDS011;14201;43.188;24.160;2024-01-30T13:14:05;8.75;;;5.35;;
26530;SDS011;14201;43.188;24.160;2024-01-30T13:16:30;7.95;;;5.13;;
26530;SDS011;14201;43.188;24.160;2024-01-30T13:18:56;8.02;;;5.43;;
26530;SDS011;14201;43.188;24.160;2024-01-30T13:21:22;10.15;;;6.35;;
26530;SDS011;14201;43.188;24.160;2024-01-30T13:23:48;8.18;;;5.60;;
26530;SDS011;14201;43.188;24.160;2024-01-30T13:26:18;8.20;;;5.18;;
26530;SDS011;14201;43.188;24.160;2024-01-30T13:28:44;8.85;;;6.30;;
26530;SDS011;14201;43.188;24.160;2024-01-30T13:31:10;6.93;;;4.80;;
26530;SDS011;14201;43.188;24.160;2024-01-30T13:33:35;11.82;;;6.22;;
26530;SDS011;14201;43.188;24.160;2024-01-30T13:36:01;8.02;;;4.70;;
26530;SDS011;14201;43.188;24.160;2024-01-30T13:38:27;9.90;;;5.40;;
26530;SDS011;14201;43.188;24.160;2024-01-30T13:40:52;8.60;;;5.20;;
26530;SDS011;14201;43.188;24.160;2024-01-30T13:43:18;9.45;;;5.55;;
26530;SDS011;14201;43.188;24.160;2024-01-30T13:45:44;9.00;;;5.18;;
26530;SDS011;14201;43.188;24.160;2024-01-30T13:48:11;10.43;;;5.85;;
26530;SDS011;14201;43.188;24.160;2024-01-30T13:50:37;6.68;;;5.20;;
26530;SDS011;14201;43.188;24.160;2024-01-30T13:53:02;11.80;;;5.70;;
26530;SDS011;14201;43.188;24.160;2024-01-30T13:55:29;12.43;;;5.93;;
26530;SDS011;14201;43.188;24.160;2024-01-30T13:57:55;10.00;;;5.85;;
26530;SDS011;14201;43.188;24.160;2024-01-30T14:00:21;10.05;;;6.28;;
26530;SDS011;14201;43.188;24.160;2024-01-30T14:02:48;8.57;;;5.22;;
26530;SDS011;14201;43.188;24.160;2024-01-30T14:05:14;9.00;;;6.20;;
26530;SDS011;14201;43.188;24.160;2024-01-30T14:07:40;9.82;;;6.20;;
26530;SDS011;14201;43.188;24.160;2024-01-30T14:10:09;9.32;;;5.82;;
26530;SDS011;14201;43.188;24.160;2024-01-30T14:12:38;8.07;;;5.40;;